SWA1311 KMDW-KCMH
Flight info
| Callsign | SWA1311 |
|---|---|
| Flight time | N/A |
| Altitude | 33000 |
| Route | LEWKE GIJ SEWTO FWA BRYEN DUBLN1 |
| Aircraft | B736/M-SDE2E3FGHIRWXY/LB1 |
Departure
| Time | N/A |
|---|---|
| Airport | Chicago Midway International Airport (KMDW) |
Arrival
| Time | 2026-05-08 01:32 |
|---|---|
| Airport | John Glenn Columbus International Airport (KCMH) |
| Time | Latitude | Longitude | Altitude | Speed | Heading |
|---|---|---|---|---|---|
| 2026-05-08 00:54 | 41.60338 | -86.68963 | 25688 ft | 486 kts | 118° |
| 2026-05-08 00:54 | 41.58797 | -86.64904 | 26179 ft | 492 kts | 118° |
| 2026-05-08 00:55 | 41.57239 | -86.60807 | 26652 ft | 497 kts | 118° |
| 2026-05-08 00:55 | 41.55662 | -86.56669 | 27129 ft | 503 kts | 118° |
| 2026-05-08 00:55 | 41.54085 | -86.52535 | 27597 ft | 508 kts | 119° |
| 2026-05-08 00:55 | 41.52472 | -86.48316 | 28063 ft | 513 kts | 119° |
| 2026-05-08 00:56 | 41.50838 | -86.44046 | 28515 ft | 519 kts | 119° |
| 2026-05-08 00:56 | 41.49189 | -86.39743 | 28961 ft | 524 kts | 119° |
| 2026-05-08 00:56 | 41.47521 | -86.35396 | 29388 ft | 529 kts | 120° |
| 2026-05-08 00:56 | 41.45834 | -86.31009 | 29812 ft | 534 kts | 120° |
| 2026-05-08 00:57 | 41.44132 | -86.26588 | 30193 ft | 538 kts | 120° |
| 2026-05-08 00:57 | 41.42414 | -86.22130 | 30554 ft | 542 kts | 120° |
| 2026-05-08 00:57 | 41.40688 | -86.17659 | 30972 ft | 544 kts | 120° |
| 2026-05-08 00:57 | 41.38956 | -86.13178 | 31429 ft | 544 kts | 120° |
| 2026-05-08 00:58 | 41.37226 | -86.08708 | 31917 ft | 543 kts | 121° |
| 2026-05-08 00:58 | 41.33727 | -85.99695 | 31639 ft | 548 kts | 121° |
| 2026-05-08 00:58 | 41.31982 | -85.95209 | 31269 ft | 544 kts | 121° |
| 2026-05-08 00:59 | 41.30244 | -85.90745 | 30996 ft | 545 kts | 121° |
| 2026-05-08 00:59 | 41.26767 | -85.81839 | 30944 ft | 533 kts | 121° |
| 2026-05-08 01:00 | 41.23364 | -85.73148 | 30956 ft | 530 kts | 121° |
| 2026-05-08 01:00 | 41.19942 | -85.64447 | 30971 ft | 532 kts | 121° |
| 2026-05-08 01:01 | 41.16503 | -85.55731 | 30981 ft | 533 kts | 122° |
| 2026-05-08 01:01 | 41.13081 | -85.47076 | 30990 ft | 532 kts | 122° |
| 2026-05-08 01:02 | 41.09635 | -85.38383 | 30985 ft | 532 kts | 122° |
| 2026-05-08 01:02 | 41.06189 | -85.29714 | 30542 ft | 534 kts | 122° |
| 2026-05-08 01:02 | 41.04454 | -85.25361 | 29773 ft | 534 kts | 122° |
| 2026-05-08 01:03 | 41.02718 | -85.21010 | 28900 ft | 533 kts | 122° |
| 2026-05-08 01:03 | 41.00995 | -85.16692 | 28349 ft | 525 kts | 122° |
| 2026-05-08 01:03 | 40.99297 | -85.12441 | 27729 ft | 519 kts | 122° |
| 2026-05-08 01:03 | 40.97617 | -85.08245 | 27166 ft | 513 kts | 121° |
| 2026-05-08 01:04 | 40.95951 | -85.04094 | 26586 ft | 507 kts | 121° |
| 2026-05-08 01:04 | 40.94304 | -84.99995 | 26020 ft | 502 kts | 121° |
| 2026-05-08 01:04 | 40.92690 | -84.95986 | 25483 ft | 497 kts | 121° |
| 2026-05-08 01:04 | 40.91071 | -84.91969 | 24938 ft | 492 kts | 120° |
| 2026-05-08 01:05 | 40.89466 | -84.87992 | 24398 ft | 488 kts | 120° |
| 2026-05-08 01:05 | 40.87877 | -84.84058 | 23863 ft | 484 kts | 120° |
| 2026-05-08 01:05 | 40.86297 | -84.80150 | 23242 ft | 480 kts | 120° |
| 2026-05-08 01:05 | 40.84773 | -84.76244 | 22750 ft | 473 kts | 116° |
| 2026-05-08 01:06 | 40.83463 | -84.72313 | 22455 ft | 463 kts | 113° |
| 2026-05-08 01:06 | 40.82274 | -84.68396 | 22123 ft | 456 kts | 111° |
| 2026-05-08 01:06 | 40.81132 | -84.64517 | 21823 ft | 450 kts | 111° |
| 2026-05-08 01:06 | 40.79992 | -84.60659 | 21517 ft | 452 kts | 111° |
| 2026-05-08 01:07 | 40.78832 | -84.56793 | 21207 ft | 455 kts | 112° |
| 2026-05-08 01:07 | 40.77653 | -84.52930 | 20895 ft | 452 kts | 112° |
| 2026-05-08 01:07 | 40.76473 | -84.49109 | 20572 ft | 447 kts | 112° |
| 2026-05-08 01:07 | 40.75296 | -84.45328 | 20266 ft | 443 kts | 112° |
| 2026-05-08 01:08 | 40.74124 | -84.41576 | 19957 ft | 440 kts | 112° |
| 2026-05-08 01:08 | 40.72976 | -84.37911 | 19670 ft | 437 kts | 112° |
| 2026-05-08 01:08 | 40.71819 | -84.34222 | 19384 ft | 434 kts | 112° |
| 2026-05-08 01:08 | 40.70669 | -84.30561 | 19091 ft | 431 kts | 112° |
| 2026-05-08 01:09 | 40.69525 | -84.26919 | 18793 ft | 429 kts | 112° |
| 2026-05-08 01:09 | 40.68386 | -84.23297 | 18502 ft | 426 kts | 112° |
| 2026-05-08 01:09 | 40.67253 | -84.19697 | 18196 ft | 424 kts | 112° |
| 2026-05-08 01:09 | 40.66124 | -84.16117 | 17861 ft | 422 kts | 112° |
| 2026-05-08 01:10 | 40.65003 | -84.12564 | 17556 ft | 419 kts | 112° |
| 2026-05-08 01:10 | 40.63886 | -84.09030 | 17253 ft | 416 kts | 112° |
| 2026-05-08 01:10 | 40.62775 | -84.05518 | 16969 ft | 413 kts | 112° |
| 2026-05-08 01:10 | 40.61671 | -84.02035 | 16680 ft | 411 kts | 112° |
| 2026-05-08 01:11 | 40.60587 | -83.98617 | 16408 ft | 409 kts | 112° |
| 2026-05-08 01:11 | 40.59493 | -83.95174 | 16125 ft | 407 kts | 112° |
| 2026-05-08 01:11 | 40.58403 | -83.91746 | 15849 ft | 405 kts | 112° |
| 2026-05-08 01:11 | 40.57318 | -83.88338 | 15569 ft | 403 kts | 112° |
| 2026-05-08 01:12 | 40.56237 | -83.84949 | 15306 ft | 401 kts | 112° |
| 2026-05-08 01:12 | 40.55161 | -83.81575 | 15042 ft | 399 kts | 112° |
| 2026-05-08 01:12 | 40.54087 | -83.78213 | 14766 ft | 398 kts | 112° |
| 2026-05-08 01:12 | 40.53015 | -83.74864 | 14497 ft | 396 kts | 112° |
| 2026-05-08 01:13 | 40.51949 | -83.71537 | 14226 ft | 395 kts | 112° |
| 2026-05-08 01:13 | 40.50883 | -83.68217 | 13955 ft | 393 kts | 112° |
| 2026-05-08 01:13 | 40.49820 | -83.64911 | 13665 ft | 392 kts | 112° |
| 2026-05-08 01:13 | 40.48773 | -83.61657 | 13367 ft | 390 kts | 112° |
| 2026-05-08 01:14 | 40.47720 | -83.58386 | 13100 ft | 387 kts | 112° |
| 2026-05-08 01:14 | 40.46673 | -83.55134 | 12816 ft | 385 kts | 113° |
| 2026-05-08 01:14 | 40.45633 | -83.51911 | 12558 ft | 382 kts | 113° |
| 2026-05-08 01:14 | 40.44596 | -83.48713 | 12286 ft | 380 kts | 114° |
| 2026-05-08 01:15 | 40.43289 | -83.45713 | 12018 ft | 377 kts | 127° |
| 2026-05-08 01:15 | 40.41733 | -83.42965 | 11775 ft | 374 kts | 129° |
| 2026-05-08 01:15 | 40.40153 | -83.40266 | 11518 ft | 372 kts | 129° |
| 2026-05-08 01:15 | 40.38585 | -83.37567 | 11261 ft | 371 kts | 129° |
| 2026-05-08 01:16 | 40.37043 | -83.34868 | 11007 ft | 369 kts | 128° |
| 2026-05-08 01:16 | 40.35521 | -83.32170 | 10754 ft | 365 kts | 128° |
| 2026-05-08 01:16 | 40.34039 | -83.29527 | 10492 ft | 355 kts | 128° |
| 2026-05-08 01:16 | 40.33079 | -83.27816 | 10334 ft | 349 kts | 128° |
| 2026-05-08 01:17 | 40.31657 | -83.25293 | 10092 ft | 340 kts | 130° |
| 2026-05-08 01:17 | 40.30006 | -83.23178 | 9966 ft | 323 kts | 146° |
| 2026-05-08 01:17 | 40.28270 | -83.21424 | 9936 ft | 309 kts | 146° |
| 2026-05-08 01:17 | 40.26556 | -83.19698 | 9498 ft | 310 kts | 146° |
| 2026-05-08 01:18 | 40.24332 | -83.17419 | 9152 ft | 304 kts | 145° |
| 2026-05-08 01:18 | 40.23219 | -83.16267 | 9009 ft | 300 kts | 145° |
| 2026-05-08 01:18 | 40.21601 | -83.14588 | 8779 ft | 293 kts | 145° |
| 2026-05-08 01:18 | 40.20071 | -83.12842 | 8567 ft | 294 kts | 132° |
| 2026-05-08 01:19 | 40.18945 | -83.10648 | 8391 ft | 294 kts | 123° |
| 2026-05-08 01:19 | 40.17867 | -83.08377 | 8187 ft | 293 kts | 124° |
| 2026-05-08 01:19 | 40.16779 | -83.06120 | 7999 ft | 291 kts | 124° |
| 2026-05-08 01:19 | 40.15658 | -83.03908 | 7695 ft | 291 kts | 127° |
| 2026-05-08 01:20 | 40.14510 | -83.01742 | 7491 ft | 287 kts | 127° |
| 2026-05-08 01:20 | 40.13380 | -82.99616 | 7274 ft | 284 kts | 127° |
| 2026-05-08 01:20 | 40.12259 | -82.97501 | 7078 ft | 282 kts | 127° |
| 2026-05-08 01:20 | 40.11145 | -82.95395 | 6880 ft | 281 kts | 127° |
| 2026-05-08 01:21 | 40.10006 | -82.93332 | 6686 ft | 278 kts | 129° |
| 2026-05-08 01:21 | 40.09077 | -82.91177 | 6466 ft | 276 kts | 107° |
| 2026-05-08 01:21 | 40.08801 | -82.88726 | 6274 ft | 271 kts | 94° |
| 2026-05-08 01:21 | 40.08682 | -82.86253 | 6031 ft | 274 kts | 93° |
| 2026-05-08 01:22 | 40.08569 | -82.83743 | 5659 ft | 279 kts | 94° |
| 2026-05-08 01:22 | 40.08442 | -82.81216 | 5301 ft | 279 kts | 94° |
| 2026-05-08 01:22 | 40.08322 | -82.78691 | 4958 ft | 279 kts | 93° |
| 2026-05-08 01:22 | 40.08208 | -82.76166 | 4634 ft | 276 kts | 93° |
| 2026-05-08 01:23 | 40.08097 | -82.73690 | 4431 ft | 270 kts | 93° |
| 2026-05-08 01:23 | 40.07991 | -82.71269 | 4214 ft | 265 kts | 93° |
| 2026-05-08 01:23 | 40.07883 | -82.68894 | 4057 ft | 258 kts | 93° |
| 2026-05-08 01:23 | 40.07781 | -82.66619 | 4010 ft | 251 kts | 93° |
| 2026-05-08 01:24 | 40.07680 | -82.64348 | 4006 ft | 249 kts | 93° |
| 2026-05-08 01:24 | 40.07580 | -82.62137 | 3998 ft | 238 kts | 92° |
| 2026-05-08 01:24 | 40.07494 | -82.60012 | 3993 ft | 232 kts | 92° |
| 2026-05-08 01:24 | 40.07408 | -82.57920 | 4003 ft | 230 kts | 92° |
| 2026-05-08 01:25 | 40.07321 | -82.55835 | 4013 ft | 230 kts | 92° |
| 2026-05-08 01:25 | 40.07058 | -82.53790 | 3991 ft | 230 kts | 118° |
| 2026-05-08 01:25 | 40.05956 | -82.52376 | 4012 ft | 224 kts | 160° |
| 2026-05-08 01:25 | 40.04437 | -82.52087 | 4035 ft | 223 kts | 182° |
| 2026-05-08 01:26 | 40.02949 | -82.52531 | 4001 ft | 219 kts | 217° |
| 2026-05-08 01:26 | 40.02012 | -82.54021 | 4025 ft | 212 kts | 245° |
| 2026-05-08 01:26 | 40.01338 | -82.55743 | 4013 ft | 214 kts | 245° |
| 2026-05-08 01:26 | 40.00664 | -82.57480 | 4008 ft | 214 kts | 245° |
| 2026-05-08 01:27 | 39.99993 | -82.59220 | 4004 ft | 215 kts | 245° |
| 2026-05-08 01:27 | 39.99323 | -82.60966 | 4010 ft | 215 kts | 245° |
| 2026-05-08 01:27 | 39.98654 | -82.62715 | 4009 ft | 215 kts | 245° |
| 2026-05-08 01:27 | 39.98109 | -82.64487 | 3993 ft | 210 kts | 264° |
| 2026-05-08 01:28 | 39.98080 | -82.66299 | 3963 ft | 194 kts | 271° |
| 2026-05-08 01:28 | 39.98112 | -82.68009 | 3774 ft | 183 kts | 273° |
| 2026-05-08 01:28 | 39.98186 | -82.69630 | 3549 ft | 175 kts | 274° |
| 2026-05-08 01:28 | 39.98268 | -82.71174 | 3317 ft | 167 kts | 275° |
| 2026-05-08 01:29 | 39.98349 | -82.72656 | 3097 ft | 164 kts | 275° |
| 2026-05-08 01:29 | 39.98429 | -82.74118 | 2870 ft | 157 kts | 275° |
| 2026-05-08 01:29 | 39.98503 | -82.75458 | 2666 ft | 141 kts | 275° |
| 2026-05-08 01:29 | 39.98570 | -82.76690 | 2481 ft | 134 kts | 275° |
| 2026-05-08 01:30 | 39.98637 | -82.77899 | 2309 ft | 134 kts | 275° |
| 2026-05-08 01:30 | 39.98704 | -82.79118 | 2114 ft | 135 kts | 275° |
| 2026-05-08 01:30 | 39.98768 | -82.80339 | 1918 ft | 134 kts | 274° |
| 2026-05-08 01:30 | 39.98837 | -82.81536 | 1712 ft | 132 kts | 275° |
| 2026-05-08 01:31 | 39.98906 | -82.82744 | 1500 ft | 133 kts | 275° |
| 2026-05-08 01:31 | 39.98975 | -82.83951 | 1345 ft | 132 kts | 274° |
| 2026-05-08 01:31 | 39.99036 | -82.85130 | 1162 ft | 129 kts | 274° |
| 2026-05-08 01:31 | 39.99103 | -82.86289 | 994 ft | 127 kts | 274° |
| 2026-05-08 01:32 | 39.99168 | -82.87429 | 845 ft | 124 kts | 275° |
| 2026-05-08 01:32 | 39.99223 | -82.88409 | 821 ft | 83 kts | 274° |
| 2026-05-08 01:32 | 39.99246 | -82.88820 | 819 ft | 0 kts | 274° |
| 2026-05-08 01:32 | 39.99252 | -82.88912 | 816 ft | 26 kts | 274° |
| 2026-05-08 01:33 | 39.99322 | -82.89113 | 819 ft | 20 kts | 354° |
| 2026-05-08 01:33 | 39.99366 | -82.89110 | 819 ft | 0 kts | 8° |
| 2026-05-08 01:34 | 39.99373 | -82.89109 | 819 ft | 5 kts | 8° |
| 2026-05-08 01:34 | 39.99400 | -82.89107 | 818 ft | 1 kts | 4° |
| 2026-05-08 01:34 | 39.99401 | -82.89107 | 818 ft | 0 kts | 4° |
| 2026-05-08 01:35 | 39.99413 | -82.89102 | 818 ft | 7 kts | 22° |
| 2026-05-08 01:35 | 39.99437 | -82.89011 | 818 ft | 15 kts | 91° |
| 2026-05-08 01:35 | 39.99426 | -82.88872 | 819 ft | 16 kts | 95° |
| 2026-05-08 01:35 | 39.99419 | -82.88715 | 817 ft | 18 kts | 92° |
| 2026-05-08 01:36 | 39.99413 | -82.88545 | 816 ft | 19 kts | 71° |
| 2026-05-08 01:36 | 39.99530 | -82.88503 | 817 ft | 18 kts | 12° |
| 2026-05-08 01:36 | 39.99627 | -82.88503 | 819 ft | 9 kts | 14° |
| 2026-05-08 01:36 | 39.99647 | -82.88497 | 819 ft | 0 kts | 14° |